sensor_id;sensor_type;location;lat;lon;timestamp;P1;durP1;ratioP1;P2;durP2;ratioP2
71629;SDS011;59479;51.902;8.212;2023-05-07T00:01:25;4.43;;;2.40;;
71629;SDS011;59479;51.902;8.212;2023-05-07T00:03:53;3.95;;;2.25;;
71629;SDS011;59479;51.902;8.212;2023-05-07T00:06:18;5.93;;;2.37;;
71629;SDS011;59479;51.902;8.212;2023-05-07T00:08:44;4.00;;;2.35;;
71629;SDS011;59479;51.902;8.212;2023-05-07T00:11:10;5.20;;;2.40;;
71629;SDS011;59479;51.902;8.212;2023-05-07T00:13:38;5.45;;;2.70;;
71629;SDS011;59479;51.902;8.212;2023-05-07T00:16:03;6.20;;;3.10;;
71629;SDS011;59479;51.902;8.212;2023-05-07T00:18:29;4.80;;;2.60;;
71629;SDS011;59479;51.902;8.212;2023-05-07T00:20:54;4.40;;;2.90;;
71629;SDS011;59479;51.902;8.212;2023-05-07T00:23:21;4.43;;;2.35;;
71629;SDS011;59479;51.902;8.212;2023-05-07T00:25:46;4.67;;;2.70;;
71629;SDS011;59479;51.902;8.212;2023-05-07T00:28:14;4.50;;;2.30;;
71629;SDS011;59479;51.902;8.212;2023-05-07T00:30:39;5.23;;;3.00;;
71629;SDS011;59479;51.902;8.212;2023-05-07T00:33:05;4.43;;;2.80;;
71629;SDS011;59479;51.902;8.212;2023-05-07T00:35:30;5.45;;;3.35;;
71629;SDS011;59479;51.902;8.212;2023-05-07T00:37:55;5.72;;;3.70;;
71629;SDS011;59479;51.902;8.212;2023-05-07T00:40:21;6.73;;;4.03;;
71629;SDS011;59479;51.902;8.212;2023-05-07T00:42:46;6.57;;;3.93;;
71629;SDS011;59479;51.902;8.212;2023-05-07T00:45:13;6.57;;;3.88;;
71629;SDS011;59479;51.902;8.212;2023-05-07T00:47:39;7.03;;;4.18;;
71629;SDS011;59479;51.902;8.212;2023-05-07T00:50:05;7.93;;;3.87;;
71629;SDS011;59479;51.902;8.212;2023-05-07T00:52:34;9.23;;;4.50;;
71629;SDS011;59479;51.902;8.212;2023-05-07T00:55:03;10.25;;;4.75;;
71629;SDS011;59479;51.902;8.212;2023-05-07T00:57:32;8.48;;;4.80;;
71629;SDS011;59479;51.902;8.212;2023-05-07T00:59:58;8.73;;;5.20;;
71629;SDS011;59479;51.902;8.212;2023-05-07T01:02:23;7.67;;;4.20;;
71629;SDS011;59479;51.902;8.212;2023-05-07T01:04:49;8.03;;;5.03;;
71629;SDS011;59479;51.902;8.212;2023-05-07T01:07:14;8.73;;;4.80;;
71629;SDS011;59479;51.902;8.212;2023-05-07T01:09:40;11.05;;;5.30;;
71629;SDS011;59479;51.902;8.212;2023-05-07T01:12:06;9.23;;;5.00;;
71629;SDS011;59479;51.902;8.212;2023-05-07T01:14:32;9.05;;;5.47;;
71629;SDS011;59479;51.902;8.212;2023-05-07T01:16:58;9.53;;;5.70;;
71629;SDS011;59479;51.902;8.212;2023-05-07T01:19:23;9.50;;;5.07;;
71629;SDS011;59479;51.902;8.212;2023-05-07T01:21:49;10.30;;;5.93;;
71629;SDS011;59479;51.902;8.212;2023-05-07T01:24:16;9.68;;;5.43;;
71629;SDS011;59479;51.902;8.212;2023-05-07T01:26:43;9.48;;;5.82;;
71629;SDS011;59479;51.902;8.212;2023-05-07T01:29:09;8.87;;;5.17;;
71629;SDS011;59479;51.902;8.212;2023-05-07T01:31:35;10.35;;;5.60;;
71629;SDS011;59479;51.902;8.212;2023-05-07T01:34:01;9.27;;;5.40;;
71629;SDS011;59479;51.902;8.212;2023-05-07T01:36:29;8.07;;;5.28;;
71629;SDS011;59479;51.902;8.212;2023-05-07T01:38:56;11.15;;;5.85;;
71629;SDS011;59479;51.902;8.212;2023-05-07T01:41:22;9.20;;;5.30;;
71629;SDS011;59479;51.902;8.212;2023-05-07T01:43:49;10.67;;;5.87;;
71629;SDS011;59479;51.902;8.212;2023-05-07T01:46:15;10.82;;;6.13;;
71629;SDS011;59479;51.902;8.212;2023-05-07T01:48:42;10.32;;;6.20;;
71629;SDS011;59479;51.902;8.212;2023-05-07T01:51:10;12.03;;;5.77;;
71629;SDS011;59479;51.902;8.212;2023-05-07T01:53:37;11.98;;;6.15;;
71629;SDS011;59479;51.902;8.212;2023-05-07T01:56:03;11.85;;;6.30;;
71629;SDS011;59479;51.902;8.212;2023-05-07T01:58:28;12.37;;;7.33;;
71629;SDS011;59479;51.902;8.212;2023-05-07T02:00:54;16.27;;;7.37;;
71629;SDS011;59479;51.902;8.212;2023-05-07T02:03:19;13.73;;;6.60;;
71629;SDS011;59479;51.902;8.212;2023-05-07T02:05:44;12.05;;;6.32;;
71629;SDS011;59479;51.902;8.212;2023-05-07T02:08:10;13.30;;;7.63;;
71629;SDS011;59479;51.902;8.212;2023-05-07T02:10:35;12.97;;;6.67;;
71629;SDS011;59479;51.902;8.212;2023-05-07T02:13:01;10.23;;;6.10;;
71629;SDS011;59479;51.902;8.212;2023-05-07T02:15:27;9.98;;;6.68;;
71629;SDS011;59479;51.902;8.212;2023-05-07T02:17:59;12.00;;;6.97;;
71629;SDS011;59479;51.902;8.212;2023-05-07T02:20:25;12.10;;;7.38;;
71629;SDS011;59479;51.902;8.212;2023-05-07T02:22:50;11.43;;;6.43;;
71629;SDS011;59479;51.902;8.212;2023-05-07T02:25:15;12.87;;;7.47;;
71629;SDS011;59479;51.902;8.212;2023-05-07T02:27:41;12.60;;;6.87;;
71629;SDS011;59479;51.902;8.212;2023-05-07T02:30:06;10.07;;;6.30;;
71629;SDS011;59479;51.902;8.212;2023-05-07T02:32:32;11.10;;;6.68;;
71629;SDS011;59479;51.902;8.212;2023-05-07T02:34:57;10.37;;;6.40;;
71629;SDS011;59479;51.902;8.212;2023-05-07T02:37:22;12.07;;;6.73;;
71629;SDS011;59479;51.902;8.212;2023-05-07T02:39:48;12.47;;;6.83;;
71629;SDS011;59479;51.902;8.212;2023-05-07T02:42:13;10.67;;;6.90;;
71629;SDS011;59479;51.902;8.212;2023-05-07T02:44:38;14.07;;;6.53;;
71629;SDS011;59479;51.902;8.212;2023-05-07T02:47:04;13.32;;;7.07;;
71629;SDS011;59479;51.902;8.212;2023-05-07T02:49:29;12.27;;;7.20;;
71629;SDS011;59479;51.902;8.212;2023-05-07T02:51:55;14.77;;;7.20;;
71629;SDS011;59479;51.902;8.212;2023-05-07T02:54:20;13.52;;;6.85;;
71629;SDS011;59479;51.902;8.212;2023-05-07T02:56:46;15.43;;;6.70;;
71629;SDS011;59479;51.902;8.212;2023-05-07T02:59:11;13.93;;;7.53;;
71629;SDS011;59479;51.902;8.212;2023-05-07T03:01:36;14.07;;;7.33;;
71629;SDS011;59479;51.902;8.212;2023-05-07T03:04:02;11.83;;;6.90;;
71629;SDS011;59479;51.902;8.212;2023-05-07T03:06:27;16.27;;;7.27;;
71629;SDS011;59479;51.902;8.212;2023-05-07T03:08:52;12.60;;;6.87;;
71629;SDS011;59479;51.902;8.212;2023-05-07T03:11:18;12.43;;;7.03;;
71629;SDS011;59479;51.902;8.212;2023-05-07T03:13:43;13.73;;;6.80;;
71629;SDS011;59479;51.902;8.212;2023-05-07T03:16:08;12.70;;;7.30;;
71629;SDS011;59479;51.902;8.212;2023-05-07T03:18:34;11.20;;;6.80;;
71629;SDS011;59479;51.902;8.212;2023-05-07T03:20:59;11.33;;;7.20;;
71629;SDS011;59479;51.902;8.212;2023-05-07T03:23:24;12.77;;;7.33;;
71629;SDS011;59479;51.902;8.212;2023-05-07T03:25:49;11.53;;;6.50;;
71629;SDS011;59479;51.902;8.212;2023-05-07T03:28:15;13.33;;;7.13;;
71629;SDS011;59479;51.902;8.212;2023-05-07T03:30:40;11.90;;;6.73;;
71629;SDS011;59479;51.902;8.212;2023-05-07T03:33:05;10.23;;;6.30;;
71629;SDS011;59479;51.902;8.212;2023-05-07T03:35:31;11.17;;;6.77;;
71629;SDS011;59479;51.902;8.212;2023-05-07T03:37:56;13.00;;;7.43;;
71629;SDS011;59479;51.902;8.212;2023-05-07T03:40:21;11.77;;;7.10;;
71629;SDS011;59479;51.902;8.212;2023-05-07T03:42:47;13.63;;;7.00;;
71629;SDS011;59479;51.902;8.212;2023-05-07T03:45:12;14.97;;;7.93;;
71629;SDS011;59479;51.902;8.212;2023-05-07T03:47:37;14.27;;;7.13;;
71629;SDS011;59479;51.902;8.212;2023-05-07T03:50:03;13.87;;;7.33;;
71629;SDS011;59479;51.902;8.212;2023-05-07T03:52:28;12.95;;;7.82;;
71629;SDS011;59479;51.902;8.212;2023-05-07T03:54:54;13.57;;;7.27;;
71629;SDS011;59479;51.902;8.212;2023-05-07T03:57:19;12.57;;;7.57;;
71629;SDS011;59479;51.902;8.212;2023-05-07T03:59:45;14.03;;;7.87;;
71629;SDS011;59479;51.902;8.212;2023-05-07T04:02:10;14.98;;;8.10;;
71629;SDS011;59479;51.902;8.212;2023-05-07T04:04:36;12.83;;;7.93;;
71629;SDS011;59479;51.902;8.212;2023-05-07T04:07:01;12.47;;;6.70;;
71629;SDS011;59479;51.902;8.212;2023-05-07T04:09:26;14.53;;;7.60;;
71629;SDS011;59479;51.902;8.212;2023-05-07T04:11:52;12.43;;;7.20;;
71629;SDS011;59479;51.902;8.212;2023-05-07T04:14:17;13.50;;;7.30;;
71629;SDS011;59479;51.902;8.212;2023-05-07T04:16:42;13.40;;;7.50;;
71629;SDS011;59479;51.902;8.212;2023-05-07T04:19:07;13.57;;;7.32;;
71629;SDS011;59479;51.902;8.212;2023-05-07T04:21:33;14.03;;;8.30;;
71629;SDS011;59479;51.902;8.212;2023-05-07T04:23:58;12.50;;;7.90;;
71629;SDS011;59479;51.902;8.212;2023-05-07T04:26:23;13.47;;;8.40;;
71629;SDS011;59479;51.902;8.212;2023-05-07T04:28:49;13.73;;;8.23;;
71629;SDS011;59479;51.902;8.212;2023-05-07T04:31:14;15.93;;;7.82;;
71629;SDS011;59479;51.902;8.212;2023-05-07T04:33:40;13.30;;;7.72;;
71629;SDS011;59479;51.902;8.212;2023-05-07T04:36:05;13.80;;;8.17;;
71629;SDS011;59479;51.902;8.212;2023-05-07T04:38:31;13.67;;;7.57;;
71629;SDS011;59479;51.902;8.212;2023-05-07T04:40:56;13.47;;;8.13;;
71629;SDS011;59479;51.902;8.212;2023-05-07T04:43:22;13.50;;;7.85;;
71629;SDS011;59479;51.902;8.212;2023-05-07T04:45:49;13.02;;;8.13;;
71629;SDS011;59479;51.902;8.212;2023-05-07T04:48:15;14.27;;;7.88;;
71629;SDS011;59479;51.902;8.212;2023-05-07T04:50:41;16.25;;;8.32;;
71629;SDS011;59479;51.902;8.212;2023-05-07T04:53:06;13.73;;;7.83;;
71629;SDS011;59479;51.902;8.212;2023-05-07T04:55:31;16.93;;;7.73;;
71629;SDS011;59479;51.902;8.212;2023-05-07T04:57:57;15.60;;;7.97;;
71629;SDS011;59479;51.902;8.212;2023-05-07T05:00:22;14.57;;;7.93;;
71629;SDS011;59479;51.902;8.212;2023-05-07T05:02:47;14.37;;;7.87;;
71629;SDS011;59479;51.902;8.212;2023-05-07T05:05:13;16.98;;;8.63;;
71629;SDS011;59479;51.902;8.212;2023-05-07T05:07:38;14.55;;;8.07;;
71629;SDS011;59479;51.902;8.212;2023-05-07T05:10:04;14.83;;;8.50;;
71629;SDS011;59479;51.902;8.212;2023-05-07T05:12:31;16.40;;;8.60;;
71629;SDS011;59479;51.902;8.212;2023-05-07T05:14:56;16.05;;;7.93;;
71629;SDS011;59479;51.902;8.212;2023-05-07T05:17:22;15.87;;;8.20;;
71629;SDS011;59479;51.902;8.212;2023-05-07T05:19:47;16.60;;;9.07;;
71629;SDS011;59479;51.902;8.212;2023-05-07T05:22:12;16.23;;;8.60;;
71629;SDS011;59479;51.902;8.212;2023-05-07T05:24:38;15.47;;;8.70;;
71629;SDS011;59479;51.902;8.212;2023-05-07T05:27:03;16.55;;;8.27;;
71629;SDS011;59479;51.902;8.212;2023-05-07T05:29:28;16.23;;;8.10;;
71629;SDS011;59479;51.902;8.212;2023-05-07T05:31:55;19.27;;;8.88;;
71629;SDS011;59479;51.902;8.212;2023-05-07T05:34:20;17.30;;;8.83;;
71629;SDS011;59479;51.902;8.212;2023-05-07T05:36:46;15.15;;;8.98;;
71629;SDS011;59479;51.902;8.212;2023-05-07T05:39:12;15.65;;;8.48;;
71629;SDS011;59479;51.902;8.212;2023-05-07T05:41:37;13.60;;;7.50;;
71629;SDS011;59479;51.902;8.212;2023-05-07T05:44:03;15.30;;;8.93;;
71629;SDS011;59479;51.902;8.212;2023-05-07T05:46:29;14.13;;;7.87;;
71629;SDS011;59479;51.902;8.212;2023-05-07T05:48:55;18.27;;;8.77;;
71629;SDS011;59479;51.902;8.212;2023-05-07T05:51:20;20.27;;;8.57;;
71629;SDS011;59479;51.902;8.212;2023-05-07T05:53:46;17.88;;;8.60;;
71629;SDS011;59479;51.902;8.212;2023-05-07T05:56:12;18.27;;;8.63;;
71629;SDS011;59479;51.902;8.212;2023-05-07T05:58:37;16.40;;;9.63;;
71629;SDS011;59479;51.902;8.212;2023-05-07T06:01:02;19.00;;;8.77;;
71629;SDS011;59479;51.902;8.212;2023-05-07T06:03:28;15.48;;;8.30;;
71629;SDS011;59479;51.902;8.212;2023-05-07T06:05:53;17.10;;;8.60;;
71629;SDS011;59479;51.902;8.212;2023-05-07T06:08:18;16.03;;;8.17;;
71629;SDS011;59479;51.902;8.212;2023-05-07T06:10:44;16.37;;;9.10;;
71629;SDS011;59479;51.902;8.212;2023-05-07T06:13:10;15.73;;;8.38;;
71629;SDS011;59479;51.902;8.212;2023-05-07T06:15:35;21.20;;;9.40;;
71629;SDS011;59479;51.902;8.212;2023-05-07T06:18:00;18.00;;;9.50;;
71629;SDS011;59479;51.902;8.212;2023-05-07T06:20:26;17.77;;;10.13;;
71629;SDS011;59479;51.902;8.212;2023-05-07T06:22:51;17.50;;;9.03;;
71629;SDS011;59479;51.902;8.212;2023-05-07T06:25:16;16.97;;;8.30;;
71629;SDS011;59479;51.902;8.212;2023-05-07T06:27:42;17.00;;;8.67;;
71629;SDS011;59479;51.902;8.212;2023-05-07T06:30:08;22.90;;;9.77;;
71629;SDS011;59479;51.902;8.212;2023-05-07T06:32:33;19.73;;;9.35;;
71629;SDS011;59479;51.902;8.212;2023-05-07T06:34:58;18.80;;;10.30;;
71629;SDS011;59479;51.902;8.212;2023-05-07T06:37:24;17.33;;;9.17;;
71629;SDS011;59479;51.902;8.212;2023-05-07T06:39:49;20.17;;;10.07;;
71629;SDS011;59479;51.902;8.212;2023-05-07T06:42:15;18.30;;;9.03;;
71629;SDS011;59479;51.902;8.212;2023-05-07T06:44:40;16.70;;;9.10;;
71629;SDS011;59479;51.902;8.212;2023-05-07T06:47:05;20.73;;;9.37;;
71629;SDS011;59479;51.902;8.212;2023-05-07T06:49:31;16.50;;;9.13;;
71629;SDS011;59479;51.902;8.212;2023-05-07T06:51:56;20.07;;;9.43;;
71629;SDS011;59479;51.902;8.212;2023-05-07T06:54:22;20.33;;;9.23;;
71629;SDS011;59479;51.902;8.212;2023-05-07T06:56:47;18.07;;;8.53;;
71629;SDS011;59479;51.902;8.212;2023-05-07T06:59:13;18.07;;;8.67;;
71629;SDS011;59479;51.902;8.212;2023-05-07T07:01:38;17.83;;;8.95;;
71629;SDS011;59479;51.902;8.212;2023-05-07T07:04:03;18.60;;;9.30;;
71629;SDS011;59479;51.902;8.212;2023-05-07T07:06:29;16.43;;;8.60;;
71629;SDS011;59479;51.902;8.212;2023-05-07T07:08:56;16.20;;;8.50;;
71629;SDS011;59479;51.902;8.212;2023-05-07T07:11:22;15.30;;;8.13;;
71629;SDS011;59479;51.902;8.212;2023-05-07T07:13:47;16.27;;;8.57;;
71629;SDS011;59479;51.902;8.212;2023-05-07T07:16:12;18.67;;;8.73;;
71629;SDS011;59479;51.902;8.212;2023-05-07T07:18:37;14.37;;;8.17;;
71629;SDS011;59479;51.902;8.212;2023-05-07T07:21:03;16.02;;;8.85;;
71629;SDS011;59479;51.902;8.212;2023-05-07T07:23:29;19.63;;;8.63;;
71629;SDS011;59479;51.902;8.212;2023-05-07T07:25:54;16.33;;;8.53;;
71629;SDS011;59479;51.902;8.212;2023-05-07T07:28:20;17.80;;;8.17;;
71629;SDS011;59479;51.902;8.212;2023-05-07T07:30:46;18.05;;;8.50;;
71629;SDS011;59479;51.902;8.212;2023-05-07T07:33:11;16.00;;;8.53;;
71629;SDS011;59479;51.902;8.212;2023-05-07T07:35:37;17.70;;;8.67;;
71629;SDS011;59479;51.902;8.212;2023-05-07T07:38:02;15.23;;;7.60;;
71629;SDS011;59479;51.902;8.212;2023-05-07T07:40:28;14.37;;;8.27;;
71629;SDS011;59479;51.902;8.212;2023-05-07T07:42:53;11.45;;;6.75;;
71629;SDS011;59479;51.902;8.212;2023-05-07T07:45:19;15.30;;;8.27;;
71629;SDS011;59479;51.902;8.212;2023-05-07T07:47:45;15.20;;;8.15;;
71629;SDS011;59479;51.902;8.212;2023-05-07T07:50:10;16.97;;;8.30;;
71629;SDS011;59479;51.902;8.212;2023-05-07T07:52:35;16.90;;;8.00;;
71629;SDS011;59479;51.902;8.212;2023-05-07T07:55:01;15.07;;;8.87;;
71629;SDS011;59479;51.902;8.212;2023-05-07T07:57:27;17.20;;;8.55;;
71629;SDS011;59479;51.902;8.212;2023-05-07T07:59:52;15.90;;;8.10;;
71629;SDS011;59479;51.902;8.212;2023-05-07T08:02:17;14.43;;;7.57;;
71629;SDS011;59479;51.902;8.212;2023-05-07T08:04:43;14.93;;;8.27;;
71629;SDS011;59479;51.902;8.212;2023-05-07T08:07:11;14.95;;;8.05;;
71629;SDS011;59479;51.902;8.212;2023-05-07T08:09:37;15.02;;;7.88;;
71629;SDS011;59479;51.902;8.212;2023-05-07T08:12:03;16.50;;;8.80;;
71629;SDS011;59479;51.902;8.212;2023-05-07T08:14:32;15.27;;;8.43;;
71629;SDS011;59479;51.902;8.212;2023-05-07T08:16:58;14.68;;;7.97;;
71629;SDS011;59479;51.902;8.212;2023-05-07T08:19:23;15.57;;;8.17;;
71629;SDS011;59479;51.902;8.212;2023-05-07T08:21:49;16.03;;;7.90;;
71629;SDS011;59479;51.902;8.212;2023-05-07T08:24:14;14.67;;;7.50;;
71629;SDS011;59479;51.902;8.212;2023-05-07T08:26:40;14.23;;;6.78;;
71629;SDS011;59479;51.902;8.212;2023-05-07T08:29:06;14.73;;;7.83;;
71629;SDS011;59479;51.902;8.212;2023-05-07T08:31:31;13.68;;;6.78;;
71629;SDS011;59479;51.902;8.212;2023-05-07T08:33:57;14.07;;;6.72;;
71629;SDS011;59479;51.902;8.212;2023-05-07T08:36:23;12.53;;;6.77;;
71629;SDS011;59479;51.902;8.212;2023-05-07T08:38:48;12.70;;;7.03;;
71629;SDS011;59479;51.902;8.212;2023-05-07T08:41:14;12.83;;;7.00;;
71629;SDS011;59479;51.902;8.212;2023-05-07T08:43:40;13.93;;;7.38;;
71629;SDS011;59479;51.902;8.212;2023-05-07T08:46:06;12.70;;;7.60;;
71629;SDS011;59479;51.902;8.212;2023-05-07T08:48:34;14.10;;;7.10;;
71629;SDS011;59479;51.902;8.212;2023-05-07T08:51:00;14.35;;;7.35;;
71629;SDS011;59479;51.902;8.212;2023-05-07T08:53:25;14.30;;;7.27;;
71629;SDS011;59479;51.902;8.212;2023-05-07T08:55:51;12.50;;;6.50;;
71629;SDS011;59479;51.902;8.212;2023-05-07T08:58:16;12.23;;;6.70;;
71629;SDS011;59479;51.902;8.212;2023-05-07T09:00:42;13.17;;;6.90;;
71629;SDS011;59479;51.902;8.212;2023-05-07T09:03:07;12.53;;;6.83;;
71629;SDS011;59479;51.902;8.212;2023-05-07T09:05:32;14.23;;;7.15;;
71629;SDS011;59479;51.902;8.212;2023-05-07T09:08:05;11.60;;;6.33;;
71629;SDS011;59479;51.902;8.212;2023-05-07T09:10:34;13.07;;;6.80;;
71629;SDS011;59479;51.902;8.212;2023-05-07T09:12:59;12.07;;;6.80;;
71629;SDS011;59479;51.902;8.212;2023-05-07T09:15:26;11.88;;;6.63;;
71629;SDS011;59479;51.902;8.212;2023-05-07T09:17:52;12.35;;;6.60;;
71629;SDS011;59479;51.902;8.212;2023-05-07T09:20:18;14.17;;;6.47;;
71629;SDS011;59479;51.902;8.212;2023-05-07T09:22:43;13.63;;;6.50;;
71629;SDS011;59479;51.902;8.212;2023-05-07T09:25:09;12.87;;;6.17;;
71629;SDS011;59479;51.902;8.212;2023-05-07T09:27:34;11.37;;;6.00;;
71629;SDS011;59479;51.902;8.212;2023-05-07T09:30:09;10.65;;;5.40;;
71629;SDS011;59479;51.902;8.212;2023-05-07T09:32:35;12.43;;;6.00;;
71629;SDS011;59479;51.902;8.212;2023-05-07T09:35:03;10.00;;;5.45;;
71629;SDS011;59479;51.902;8.212;2023-05-07T09:37:30;10.77;;;6.18;;
71629;SDS011;59479;51.902;8.212;2023-05-07T09:39:55;10.48;;;5.93;;
71629;SDS011;59479;51.902;8.212;2023-05-07T09:42:24;11.00;;;5.50;;
71629;SDS011;59479;51.902;8.212;2023-05-07T09:44:51;9.75;;;5.78;;
71629;SDS011;59479;51.902;8.212;2023-05-07T09:47:20;12.10;;;5.90;;
71629;SDS011;59479;51.902;8.212;2023-05-07T09:49:49;11.57;;;5.82;;
71629;SDS011;59479;51.902;8.212;2023-05-07T09:52:15;10.55;;;5.93;;
71629;SDS011;59479;51.902;8.212;2023-05-07T09:54:41;12.47;;;5.70;;
71629;SDS011;59479;51.902;8.212;2023-05-07T09:57:09;11.32;;;5.88;;
71629;SDS011;59479;51.902;8.212;2023-05-07T09:59:38;10.50;;;5.75;;
71629;SDS011;59479;51.902;8.212;2023-05-07T10:02:06;10.95;;;5.40;;
71629;SDS011;59479;51.902;8.212;2023-05-07T10:04:35;11.02;;;5.72;;
71629;SDS011;59479;51.902;8.212;2023-05-07T10:07:00;10.40;;;5.60;;
71629;SDS011;59479;51.902;8.212;2023-05-07T10:09:26;9.30;;;5.50;;
71629;SDS011;59479;51.902;8.212;2023-05-07T10:11:52;10.30;;;5.43;;
71629;SDS011;59479;51.902;8.212;2023-05-07T10:14:19;9.70;;;5.47;;
71629;SDS011;59479;51.902;8.212;2023-05-07T10:16:45;11.13;;;5.93;;
71629;SDS011;59479;51.902;8.212;2023-05-07T10:19:12;11.05;;;5.57;;
71629;SDS011;59479;51.902;8.212;2023-05-07T10:21:38;10.33;;;5.67;;
71629;SDS011;59479;51.902;8.212;2023-05-07T10:24:09;11.10;;;5.78;;
71629;SDS011;59479;51.902;8.212;2023-05-07T10:26:45;11.43;;;5.80;;
71629;SDS011;59479;51.902;8.212;2023-05-07T10:32:22;11.50;;;5.77;;
71629;SDS011;59479;51.902;8.212;2023-05-07T10:34:53;11.82;;;5.70;;
71629;SDS011;59479;51.902;8.212;2023-05-07T10:37:20;11.73;;;5.40;;
71629;SDS011;59479;51.902;8.212;2023-05-07T10:39:47;11.63;;;5.85;;
71629;SDS011;59479;51.902;8.212;2023-05-07T10:42:13;10.60;;;5.60;;
71629;SDS011;59479;51.902;8.212;2023-05-07T10:44:39;9.48;;;5.63;;
71629;SDS011;59479;51.902;8.212;2023-05-07T10:54:49;9.77;;;5.60;;
71629;SDS011;59479;51.902;8.212;2023-05-07T10:57:39;11.30;;;6.10;;
71629;SDS011;59479;51.902;8.212;2023-05-07T11:05:23;10.98;;;5.63;;
71629;SDS011;59479;51.902;8.212;2023-05-07T11:10:21;10.38;;;5.93;;
71629;SDS011;59479;51.902;8.212;2023-05-07T11:12:47;12.07;;;6.13;;
71629;SDS011;59479;51.902;8.212;2023-05-07T11:15:14;10.07;;;5.25;;
71629;SDS011;59479;51.902;8.212;2023-05-07T11:17:59;10.77;;;5.70;;
71629;SDS011;59479;51.902;8.212;2023-05-07T11:25:58;10.75;;;5.95;;
71629;SDS011;59479;51.902;8.212;2023-05-07T11:28:26;9.82;;;5.65;;
71629;SDS011;59479;51.902;8.212;2023-05-07T11:30:53;10.47;;;5.27;;
71629;SDS011;59479;51.902;8.212;2023-05-07T11:33:18;11.88;;;5.57;;
71629;SDS011;59479;51.902;8.212;2023-05-07T11:35:44;10.37;;;5.90;;
71629;SDS011;59479;51.902;8.212;2023-05-07T11:38:10;10.05;;;5.68;;
71629;SDS011;59479;51.902;8.212;2023-05-07T11:40:49;10.05;;;4.97;;
71629;SDS011;59479;51.902;8.212;2023-05-07T11:43:16;10.40;;;5.17;;
71629;SDS011;59479;51.902;8.212;2023-05-07T11:45:41;8.93;;;4.90;;
71629;SDS011;59479;51.902;8.212;2023-05-07T11:48:06;9.77;;;4.97;;
71629;SDS011;59479;51.902;8.212;2023-05-07T11:50:32;10.37;;;5.43;;
71629;SDS011;59479;51.902;8.212;2023-05-07T11:52:57;8.77;;;5.47;;
71629;SDS011;59479;51.902;8.212;2023-05-07T11:55:23;10.90;;;5.40;;
71629;SDS011;59479;51.902;8.212;2023-05-07T11:57:49;10.43;;;5.50;;
71629;SDS011;59479;51.902;8.212;2023-05-07T12:00:15;9.67;;;5.77;;
71629;SDS011;59479;51.902;8.212;2023-05-07T12:02:41;10.43;;;5.57;;
71629;SDS011;59479;51.902;8.212;2023-05-07T12:05:07;11.05;;;5.88;;
71629;SDS011;59479;51.902;8.212;2023-05-07T12:07:33;9.50;;;5.23;;
71629;SDS011;59479;51.902;8.212;2023-05-07T12:09:59;9.43;;;5.05;;
71629;SDS011;59479;51.902;8.212;2023-05-07T12:12:24;10.10;;;5.40;;
71629;SDS011;59479;51.902;8.212;2023-05-07T12:14:51;9.18;;;5.13;;
71629;SDS011;59479;51.902;8.212;2023-05-07T12:17:17;8.47;;;4.73;;
71629;SDS011;59479;51.902;8.212;2023-05-07T12:19:42;8.67;;;5.13;;
71629;SDS011;59479;51.902;8.212;2023-05-07T12:22:09;11.05;;;4.78;;
71629;SDS011;59479;51.902;8.212;2023-05-07T12:24:48;9.25;;;5.13;;
71629;SDS011;59479;51.902;8.212;2023-05-07T12:27:24;7.93;;;4.45;;
71629;SDS011;59479;51.902;8.212;2023-05-07T12:29:50;8.63;;;4.73;;
71629;SDS011;59479;51.902;8.212;2023-05-07T12:32:16;10.35;;;4.75;;
71629;SDS011;59479;51.902;8.212;2023-05-07T12:34:43;9.03;;;5.30;;
71629;SDS011;59479;51.902;8.212;2023-05-07T12:37:08;9.20;;;4.93;;
71629;SDS011;59479;51.902;8.212;2023-05-07T12:39:35;9.80;;;5.47;;
71629;SDS011;59479;51.902;8.212;2023-05-07T12:42:00;9.20;;;4.43;;
71629;SDS011;59479;51.902;8.212;2023-05-07T12:44:29;8.40;;;5.25;;
71629;SDS011;59479;51.902;8.212;2023-05-07T12:46:56;7.75;;;4.43;;
71629;SDS011;59479;51.902;8.212;2023-05-07T12:49:23;7.88;;;4.63;;
71629;SDS011;59479;51.902;8.212;2023-05-07T12:51:50;8.65;;;4.90;;
71629;SDS011;59479;51.902;8.212;2023-05-07T12:54:31;8.53;;;4.50;;
71629;SDS011;59479;51.902;8.212;2023-05-07T12:57:01;7.50;;;4.22;;
71629;SDS011;59479;51.902;8.212;2023-05-07T12:59:30;8.23;;;4.32;;
71629;SDS011;59479;51.902;8.212;2023-05-07T13:01:57;8.07;;;4.22;;
71629;SDS011;59479;51.902;8.212;2023-05-07T13:04:24;8.67;;;4.20;;
71629;SDS011;59479;51.902;8.212;2023-05-07T13:06:49;8.93;;;4.18;;
71629;SDS011;59479;51.902;8.212;2023-05-07T13:09:15;8.13;;;4.33;;
71629;SDS011;59479;51.902;8.212;2023-05-07T13:11:40;8.07;;;4.33;;
71629;SDS011;59479;51.902;8.212;2023-05-07T13:14:05;7.97;;;4.10;;
71629;SDS011;59479;51.902;8.212;2023-05-07T13:16:31;8.20;;;4.10;;
71629;SDS011;59479;51.902;8.212;2023-05-07T13:18:56;6.68;;;3.70;;
71629;SDS011;59479;51.902;8.212;2023-05-07T13:21:22;8.37;;;3.93;;
71629;SDS011;59479;51.902;8.212;2023-05-07T13:23:47;6.60;;;3.57;;
71629;SDS011;59479;51.902;8.212;2023-05-07T13:26:12;7.43;;;3.63;;
71629;SDS011;59479;51.902;8.212;2023-05-07T13:28:37;6.20;;;3.50;;
71629;SDS011;59479;51.902;8.212;2023-05-07T13:31:03;5.73;;;3.63;;
71629;SDS011;59479;51.902;8.212;2023-05-07T13:33:28;6.17;;;3.50;;
71629;SDS011;59479;51.902;8.212;2023-05-07T13:35:53;6.37;;;3.50;;
71629;SDS011;59479;51.902;8.212;2023-05-07T13:38:19;8.57;;;4.22;;
71629;SDS011;59479;51.902;8.212;2023-05-07T13:40:44;5.65;;;3.20;;
71629;SDS011;59479;51.902;8.212;2023-05-07T13:43:09;6.30;;;3.07;;
71629;SDS011;59479;51.902;8.212;2023-05-07T13:45:35;7.47;;;3.77;;
71629;SDS011;59479;51.902;8.212;2023-05-07T13:48:00;6.00;;;3.27;;
71629;SDS011;59479;51.902;8.212;2023-05-07T13:50:26;6.53;;;3.67;;
71629;SDS011;59479;51.902;8.212;2023-05-07T13:52:52;6.60;;;3.63;;
71629;SDS011;59479;51.902;8.212;2023-05-07T13:55:17;5.33;;;3.20;;
71629;SDS011;59479;51.902;8.212;2023-05-07T13:57:43;5.95;;;3.10;;
71629;SDS011;59479;51.902;8.212;2023-05-07T14:00:09;6.70;;;3.47;;
71629;SDS011;59479;51.902;8.212;2023-05-07T14:02:34;6.80;;;3.70;;
71629;SDS011;59479;51.902;8.212;2023-05-07T14:05:00;6.57;;;3.40;;
71629;SDS011;59479;51.902;8.212;2023-05-07T14:07:25;6.93;;;3.80;;
71629;SDS011;59479;51.902;8.212;2023-05-07T14:09:51;5.63;;;3.07;;
71629;SDS011;59479;51.902;8.212;2023-05-07T14:12:16;5.50;;;3.00;;
71629;SDS011;59479;51.902;8.212;2023-05-07T14:14:41;5.70;;;3.35;;
71629;SDS011;59479;51.902;8.212;2023-05-07T14:17:06;7.07;;;3.60;;
71629;SDS011;59479;51.902;8.212;2023-05-07T14:19:33;6.78;;;3.42;;
71629;SDS011;59479;51.902;8.212;2023-05-07T14:21:59;5.70;;;3.30;;
71629;SDS011;59479;51.902;8.212;2023-05-07T14:24:24;7.13;;;3.10;;
71629;SDS011;59479;51.902;8.212;2023-05-07T14:26:49;6.07;;;3.30;;
71629;SDS011;59479;51.902;8.212;2023-05-07T14:29:15;7.95;;;4.07;;
71629;SDS011;59479;51.902;8.212;2023-05-07T14:31:43;6.72;;;3.47;;
71629;SDS011;59479;51.902;8.212;2023-05-07T14:34:09;7.53;;;3.67;;
71629;SDS011;59479;51.902;8.212;2023-05-07T14:36:34;6.00;;;2.97;;
71629;SDS011;59479;51.902;8.212;2023-05-07T14:39:00;5.40;;;3.20;;
71629;SDS011;59479;51.902;8.212;2023-05-07T14:41:25;5.80;;;3.20;;
71629;SDS011;59479;51.902;8.212;2023-05-07T14:43:51;6.17;;;3.70;;
71629;SDS011;59479;51.902;8.212;2023-05-07T14:46:17;8.27;;;3.57;;
71629;SDS011;59479;51.902;8.212;2023-05-07T14:48:43;6.18;;;3.50;;
71629;SDS011;59479;51.902;8.212;2023-05-07T14:51:10;5.30;;;3.00;;
71629;SDS011;59479;51.902;8.212;2023-05-07T14:53:35;6.55;;;2.97;;
71629;SDS011;59479;51.902;8.212;2023-05-07T14:56:01;5.60;;;3.15;;